createdAt,value
2019-03-19T00:00:14.807Z,65.96
2019-03-19T00:02:43.187Z,66.01
2019-03-19T00:05:11.569Z,65.99
2019-03-19T00:07:39.994Z,65.95
2019-03-19T00:10:09.643Z,66.20
2019-03-19T00:12:38.030Z,66.23
2019-03-19T00:15:08.502Z,66.29
2019-03-19T00:17:36.931Z,66.32
2019-03-19T00:20:13.483Z,66.25
2019-03-19T00:22:41.894Z,66.49
2019-03-19T00:25:10.433Z,66.58
2019-03-19T00:27:38.829Z,66.70
2019-03-19T00:30:16.232Z,66.72
2019-03-19T00:32:44.645Z,66.84
2019-03-19T00:35:13.711Z,67.04
2019-03-19T00:37:42.190Z,67.06
2019-03-19T00:40:15.469Z,67.05
2019-03-19T00:42:43.897Z,67.00
2019-03-19T00:45:13.457Z,67.04
2019-03-19T00:47:41.847Z,67.08
2019-03-19T00:50:13.023Z,67.32
2019-03-19T00:52:41.452Z,67.30
2019-03-19T00:55:10.065Z,67.27
2019-03-19T00:57:38.414Z,67.42
2019-03-19T01:00:15.922Z,67.44
2019-03-19T01:02:44.337Z,67.55
2019-03-19T01:05:12.842Z,67.69
2019-03-19T01:07:41.353Z,67.92
2019-03-19T01:10:11.887Z,67.92
2019-03-19T01:12:40.330Z,67.80
2019-03-19T01:15:10.863Z,67.80
2019-03-19T01:17:39.258Z,67.88
2019-03-19T01:20:10.738Z,67.93
2019-03-19T01:22:39.144Z,67.91
2019-03-19T01:25:09.362Z,68.21
2019-03-19T01:27:37.846Z,68.32
2019-03-19T01:30:11.653Z,68.44
2019-03-19T01:32:40.089Z,68.37
2019-03-19T01:35:08.586Z,68.37
2019-03-19T01:37:36.981Z,68.31
2019-03-19T01:40:10.908Z,68.48
2019-03-19T01:42:39.307Z,68.66
2019-03-19T01:45:09.981Z,68.77
2019-03-19T01:47:38.413Z,68.86
2019-03-19T01:50:09.753Z,68.94
2019-03-19T01:52:38.155Z,69.09
2019-03-19T01:55:09.635Z,69.30
2019-03-19T01:57:38.020Z,69.36
2019-03-19T02:00:14.480Z,69.49
2019-03-19T02:02:42.913Z,69.49
2019-03-19T02:05:11.396Z,69.62
2019-03-19T02:07:39.817Z,69.54
2019-03-19T02:10:13.120Z,69.57
2019-03-19T02:12:41.651Z,69.71
2019-03-19T02:15:17.433Z,70.09
2019-03-19T02:17:45.906Z,70.06
2019-03-19T02:20:15.432Z,70.38
2019-03-19T02:22:43.958Z,70.13
2019-03-19T02:25:12.438Z,70.01
2019-03-19T02:27:40.819Z,70.11
2019-03-19T02:30:14.681Z,69.85
2019-03-19T02:32:43.169Z,69.90
2019-03-19T02:35:11.894Z,70.22
2019-03-19T02:37:40.335Z,70.46
2019-03-19T02:40:17.463Z,70.50
2019-03-19T02:42:45.868Z,70.68
2019-03-19T02:45:15.349Z,70.56
2019-03-19T02:47:43.746Z,70.43
2019-03-19T02:50:18.832Z,70.41
2019-03-19T02:52:47.251Z,70.68
2019-03-19T02:55:15.625Z,70.89
2019-03-19T02:57:44.059Z,70.83
2019-03-19T03:00:18.477Z,70.72
2019-03-19T03:02:47.047Z,70.65
2019-03-19T03:05:19.505Z,70.72
2019-03-19T03:07:47.878Z,70.67
2019-03-19T03:10:16.340Z,70.69
2019-03-19T03:12:44.853Z,70.74
2019-03-19T03:15:14.062Z,70.72
2019-03-19T03:17:42.555Z,70.68
2019-03-19T03:20:13.406Z,70.67
2019-03-19T03:22:41.815Z,70.90
2019-03-19T03:25:12.651Z,70.78
2019-03-19T03:27:41.113Z,71.03
2019-03-19T03:30:23.224Z,71.21
2019-03-19T03:32:51.726Z,71.15
2019-03-19T03:35:20.105Z,71.16
2019-03-19T03:37:48.471Z,71.09
2019-03-19T03:40:17.785Z,71.02
2019-03-19T03:42:46.224Z,70.85
2019-03-19T03:45:16.520Z,71.00
2019-03-19T03:47:44.912Z,70.96
2019-03-19T03:50:17.436Z,70.99
2019-03-19T03:52:45.847Z,70.95
2019-03-19T03:55:20.411Z,70.83
2019-03-19T03:57:48.819Z,71.05
2019-03-19T04:00:18.295Z,70.86
2019-03-19T04:02:46.690Z,71.05
2019-03-19T04:05:15.223Z,71.12
2019-03-19T04:07:43.631Z,71.06
2019-03-19T04:10:19.648Z,71.22
2019-03-19T04:12:48.127Z,71.04
2019-03-19T04:15:17.356Z,71.03
2019-03-19T04:17:45.811Z,70.94
2019-03-19T04:20:17.954Z,71.41
2019-03-19T04:22:46.343Z,71.32
2019-03-19T04:25:15.084Z,71.01
2019-03-19T04:27:43.485Z,70.97
2019-03-19T04:30:13.722Z,71.10
2019-03-19T04:32:42.113Z,71.05
2019-03-19T04:35:10.674Z,71.07
2019-03-19T04:37:39.074Z,71.09
2019-03-19T04:40:15.289Z,71.14
2019-03-19T04:42:44.310Z,70.84
2019-03-19T04:45:17.609Z,71.20
2019-03-19T04:47:45.987Z,71.17
2019-03-19T04:50:15.327Z,71.11
2019-03-19T04:52:43.726Z,71.02
2019-03-19T04:55:14.701Z,71.01
2019-03-19T04:57:43.135Z,71.10
2019-03-19T05:00:15.852Z,71.17
2019-03-19T05:02:44.281Z,71.17
2019-03-19T05:05:13.518Z,70.90
2019-03-19T05:07:42.099Z,71.16
2019-03-19T05:10:12.696Z,71.42
2019-03-19T05:12:41.080Z,71.63
2019-03-19T05:15:10.644Z,71.75
2019-03-19T05:17:39.021Z,71.69
2019-03-19T05:20:10.583Z,71.54
2019-03-19T05:22:38.961Z,71.58
2019-03-19T05:25:08.303Z,71.56
2019-03-19T05:27:37.572Z,71.52
2019-03-19T05:30:14.548Z,71.27
2019-03-19T05:32:43.095Z,71.47
2019-03-19T05:35:11.562Z,71.55
2019-03-19T05:37:39.953Z,71.94
2019-03-19T05:40:16.424Z,71.99
2019-03-19T05:42:44.815Z,71.97
2019-03-19T05:45:15.132Z,71.82
2019-03-19T05:47:43.592Z,71.68
2019-03-19T05:50:14.357Z,71.49
2019-03-19T05:52:42.750Z,71.43
2019-03-19T05:55:12.003Z,71.42
2019-03-19T05:57:48.737Z,71.57
2019-03-19T06:00:14.885Z,71.71
2019-03-19T06:02:43.276Z,71.71
2019-03-19T06:05:12.605Z,71.56
2019-03-19T06:07:40.991Z,71.61
2019-03-19T06:10:13.519Z,71.66
2019-03-19T06:12:41.919Z,71.74
2019-03-19T06:15:16.966Z,71.60
2019-03-19T06:17:45.356Z,71.83
2019-03-19T06:20:18.625Z,71.87
2019-03-19T06:22:47.009Z,71.93
2019-03-19T06:25:15.498Z,71.89
2019-03-19T06:27:43.876Z,71.65
2019-03-19T06:30:16.658Z,71.78
2019-03-19T06:32:45.120Z,71.66
2019-03-19T06:35:14.992Z,71.78
2019-03-19T06:37:43.434Z,71.95
2019-03-19T06:40:14.964Z,72.01
2019-03-19T06:42:43.364Z,71.71
2019-03-19T06:45:14.332Z,71.89
2019-03-19T06:47:42.732Z,71.82
2019-03-19T06:50:14.020Z,71.80
2019-03-19T06:52:42.386Z,71.48
2019-03-19T06:55:16.674Z,71.43
2019-03-19T06:57:45.065Z,71.26
2019-03-19T07:00:25.570Z,71.16
2019-03-19T07:02:54.034Z,71.01
2019-03-19T07:05:22.769Z,70.88
2019-03-19T07:07:51.163Z,70.73
2019-03-19T07:10:20.387Z,70.74
2019-03-19T07:12:48.788Z,70.65
2019-03-19T07:15:22.195Z,70.12
2019-03-19T07:17:50.585Z,70.25
2019-03-19T07:20:22.041Z,69.90
2019-03-19T07:22:50.525Z,70.04
2019-03-19T07:25:18.974Z,70.07
2019-03-19T07:27:47.287Z,69.82
2019-03-19T07:30:19.880Z,69.52
2019-03-19T07:32:48.306Z,69.52
2019-03-19T07:35:16.768Z,69.61
2019-03-19T07:37:45.167Z,69.43
2019-03-19T07:40:14.894Z,69.52
2019-03-19T07:42:43.286Z,69.34
2019-03-19T07:45:19.003Z,68.89
2019-03-19T07:47:47.416Z,68.69
2019-03-19T07:50:19.816Z,68.26
2019-03-19T07:52:48.208Z,68.23
2019-03-19T07:55:16.748Z,67.76
2019-03-19T07:57:45.142Z,67.77
2019-03-19T08:00:18.001Z,67.80
2019-03-19T08:02:46.393Z,67.07
2019-03-19T08:05:14.866Z,66.69
2019-03-19T08:07:43.254Z,66.92
2019-03-19T08:10:13.770Z,66.43
2019-03-19T08:12:42.233Z,66.56
2019-03-19T08:15:16.724Z,66.41
2019-03-19T08:17:45.190Z,65.72
2019-03-19T08:20:15.432Z,65.13
2019-03-19T08:22:43.906Z,65.14
2019-03-19T08:25:13.433Z,64.73
2019-03-19T08:27:41.825Z,64.21
2019-03-19T08:30:25.072Z,64.51
2019-03-19T08:32:53.545Z,64.00
2019-03-19T08:35:22.000Z,63.78
2019-03-19T08:37:50.400Z,63.58
2019-03-19T08:40:19.331Z,63.78
2019-03-19T08:42:47.730Z,62.90
2019-03-19T08:45:23.724Z,62.16
2019-03-19T08:47:52.223Z,62.73
2019-03-19T08:50:24.250Z,61.33
2019-03-19T08:52:54.998Z,61.88
2019-03-19T08:55:22.756Z,61.13
2019-03-19T08:57:51.143Z,61.24
2019-03-19T09:00:29.680Z,60.81
2019-03-19T09:02:58.073Z,58.29
2019-03-19T09:05:26.466Z,57.18
2019-03-19T09:07:54.956Z,57.35
2019-03-19T09:10:23.379Z,57.71
2019-03-19T09:12:51.766Z,56.87
2019-03-19T09:15:22.378Z,56.32
2019-03-19T09:17:50.830Z,55.81
2019-03-19T09:20:19.390Z,55.46
2019-03-19T09:22:47.767Z,55.27
2019-03-19T09:25:16.176Z,55.49
2019-03-19T09:27:44.602Z,55.33
2019-03-19T09:30:17.836Z,54.86
2019-03-19T09:32:46.278Z,54.80
2019-03-19T09:35:14.762Z,54.59
2019-03-19T09:37:46.330Z,53.88
2019-03-19T09:40:15.184Z,54.10
2019-03-19T09:42:43.580Z,54.22
2019-03-19T09:45:13.487Z,53.55
2019-03-19T09:47:41.866Z,53.39
2019-03-19T09:50:21.383Z,54.31
2019-03-19T09:52:49.767Z,53.09
2019-03-19T09:55:18.264Z,52.29
2019-03-19T09:57:46.679Z,52.50
2019-03-19T10:00:21.754Z,53.19
2019-03-19T10:02:50.221Z,52.48
2019-03-19T10:05:18.677Z,53.17
2019-03-19T10:07:47.058Z,53.03
2019-03-19T10:10:23.163Z,53.47
2019-03-19T10:12:51.624Z,52.63
2019-03-19T10:15:20.195Z,53.13
2019-03-19T10:17:48.573Z,53.12
2019-03-19T10:20:21.506Z,53.13
2019-03-19T10:22:49.891Z,53.52
2019-03-19T10:25:18.379Z,53.83
2019-03-19T10:27:46.750Z,53.81
2019-03-19T10:30:22.177Z,53.30
2019-03-19T10:32:50.578Z,53.71
2019-03-19T10:35:18.970Z,53.81
2019-03-19T10:37:47.518Z,52.59
2019-03-19T10:40:18.597Z,52.03
2019-03-19T10:42:47.037Z,51.72
2019-03-19T10:45:19.936Z,51.38
2019-03-19T10:47:48.389Z,51.40
2019-03-19T10:50:22.145Z,50.89
2019-03-19T10:52:50.816Z,50.51
2019-03-19T10:55:19.278Z,50.17
2019-03-19T10:57:47.654Z,50.60
2019-03-19T11:00:18.535Z,49.59
2019-03-19T11:02:46.930Z,47.86
2019-03-19T11:05:15.764Z,48.16
2019-03-19T11:07:44.148Z,48.98
2019-03-19T11:10:15.184Z,48.95
2019-03-19T11:12:43.834Z,47.92
2019-03-19T11:15:19.057Z,47.76
2019-03-19T11:17:47.577Z,46.04
2019-03-19T11:20:17.522Z,46.72
2019-03-19T11:22:46.238Z,46.90
2019-03-19T11:25:16.464Z,47.10
2019-03-19T11:27:44.911Z,47.15
2019-03-19T11:30:22.420Z,47.81
2019-03-19T11:32:50.872Z,47.10
2019-03-19T11:35:19.620Z,47.15
2019-03-19T11:37:47.977Z,47.68
2019-03-19T11:40:17.693Z,46.17
2019-03-19T11:42:46.143Z,45.27
2019-03-19T11:45:16.685Z,46.45
2019-03-19T11:47:45.227Z,46.18
2019-03-19T11:50:16.083Z,47.11
2019-03-19T11:52:44.476Z,46.99
2019-03-19T11:55:14.414Z,47.35
2019-03-19T11:57:42.791Z,47.68
2019-03-19T12:00:30.306Z,47.54
2019-03-19T12:02:58.869Z,48.33
2019-03-19T12:05:27.280Z,47.81
2019-03-19T12:07:55.677Z,46.97
2019-03-19T12:10:24.153Z,47.38
2019-03-19T12:12:52.518Z,46.81
2019-03-19T12:15:20.986Z,46.70
2019-03-19T12:17:49.375Z,47.04
2019-03-19T12:20:17.758Z,46.49
2019-03-19T12:22:46.165Z,46.37
2019-03-19T12:25:14.625Z,46.30
2019-03-19T12:27:43.096Z,46.35
2019-03-19T12:30:22.646Z,45.89
2019-03-19T12:32:49.938Z,45.95
2019-03-19T12:35:19.058Z,46.13
2019-03-19T12:37:47.445Z,45.85
2019-03-19T12:40:20.870Z,46.27
2019-03-19T12:42:49.382Z,45.89
2019-03-19T12:45:22.627Z,45.75
2019-03-19T12:47:51.188Z,45.60
2019-03-19T12:50:26.496Z,44.46
2019-03-19T12:52:54.944Z,44.39
2019-03-19T12:55:23.467Z,44.39
2019-03-19T12:57:52.055Z,43.65
2019-03-19T13:00:32.958Z,43.94
2019-03-19T13:02:53.240Z,43.57
2019-03-19T13:07:10.799Z,43.05
2019-03-19T13:07:51.743Z,43.70
2019-03-19T13:10:24.780Z,43.06
2019-03-19T13:12:53.197Z,42.19
2019-03-19T13:15:22.455Z,41.92
2019-03-19T13:17:50.936Z,42.15
2019-03-19T13:20:23.210Z,42.71
2019-03-19T13:22:51.833Z,43.43
2019-03-19T13:25:26.649Z,43.36
2019-03-19T13:27:55.049Z,43.58
2019-03-19T13:30:24.915Z,43.69
2019-03-19T13:32:53.514Z,44.46
2019-03-19T13:35:21.948Z,43.84
2019-03-19T13:37:50.322Z,42.77
2019-03-19T13:40:19.456Z,43.10
2019-03-19T13:42:47.905Z,43.39
2019-03-19T13:45:21.442Z,42.72
2019-03-19T13:47:49.904Z,43.14
2019-03-19T13:50:20.382Z,40.68
2019-03-19T13:52:48.759Z,41.05
2019-03-19T13:55:22.095Z,40.76
2019-03-19T13:57:50.472Z,41.23
2019-03-19T14:00:19.597Z,41.12
2019-03-19T14:02:48.041Z,40.34
2019-03-19T14:05:17.072Z,40.82
2019-03-19T14:07:45.451Z,40.23
2019-03-19T14:10:17.531Z,40.48
2019-03-19T14:12:45.926Z,40.45
2019-03-19T14:15:19.099Z,39.91
2019-03-19T14:17:47.495Z,39.97
2019-03-19T14:20:18.595Z,40.93
2019-03-19T14:22:47.045Z,40.07
2019-03-19T14:25:16.259Z,40.51
2019-03-19T14:27:44.882Z,39.67
2019-03-19T14:30:18.408Z,39.75
2019-03-19T14:32:46.926Z,39.69
2019-03-19T14:35:15.443Z,39.58
2019-03-19T14:37:44.121Z,38.12
2019-03-19T14:40:20.176Z,38.71
2019-03-19T14:42:48.664Z,38.91
2019-03-19T14:45:17.677Z,39.05
2019-03-19T14:47:46.122Z,39.53
2019-03-19T14:50:19.610Z,39.60
2019-03-19T14:52:47.990Z,39.82
2019-03-19T14:55:16.442Z,39.44
2019-03-19T14:57:44.833Z,40.15
2019-03-19T15:00:18.946Z,40.36
2019-03-19T15:02:47.392Z,40.16
2019-03-19T15:05:16.310Z,40.17
2019-03-19T15:07:44.763Z,39.60
2019-03-19T15:10:17.832Z,39.71
2019-03-19T15:12:46.220Z,40.17
2019-03-19T15:15:18.429Z,40.01
2019-03-19T15:17:46.888Z,40.64
2019-03-19T15:20:28.055Z,41.00
2019-03-19T15:22:56.447Z,40.60
2019-03-19T15:25:24.831Z,40.71
2019-03-19T15:27:53.380Z,40.56
2019-03-19T15:30:21.829Z,40.25
2019-03-19T15:32:50.221Z,40.19
2019-03-19T15:35:18.612Z,40.24
2019-03-19T15:37:46.981Z,40.12
2019-03-19T15:40:19.211Z,40.24
2019-03-19T15:42:47.737Z,39.76
2019-03-19T15:45:17.860Z,39.64
2019-03-19T15:47:46.238Z,39.92
2019-03-19T15:50:16.441Z,40.77
2019-03-19T15:52:44.885Z,41.39
2019-03-19T15:55:14.407Z,41.07
2019-03-19T15:57:42.884Z,40.81
2019-03-19T16:00:15.809Z,40.73
2019-03-19T16:02:44.259Z,40.33
2019-03-19T16:05:13.679Z,40.49
2019-03-19T16:07:43.160Z,40.35
2019-03-19T16:10:13.646Z,40.36
2019-03-19T16:12:42.171Z,40.48
2019-03-19T16:15:15.215Z,40.16
2019-03-19T16:17:43.681Z,39.69
2019-03-19T16:20:16.759Z,38.91
2019-03-19T16:22:45.142Z,38.84
2019-03-19T16:25:14.086Z,39.21
2019-03-19T16:27:42.472Z,39.56
2019-03-19T16:30:17.518Z,39.72
2019-03-19T16:32:45.976Z,40.05
2019-03-19T16:35:14.941Z,40.01
2019-03-19T16:37:43.668Z,40.24
2019-03-19T16:40:15.232Z,40.44
2019-03-19T16:42:43.620Z,40.43
2019-03-19T16:45:12.180Z,40.56
2019-03-19T16:47:40.601Z,40.47
2019-03-19T16:50:12.075Z,40.07
2019-03-19T16:52:40.633Z,40.34
2019-03-19T16:55:11.579Z,40.24
2019-03-19T16:57:39.967Z,40.27
2019-03-19T17:00:13.906Z,39.89
2019-03-19T17:02:42.301Z,40.20
2019-03-19T17:05:12.644Z,39.78
2019-03-19T17:07:41.148Z,40.30
2019-03-19T17:10:12.321Z,40.70
2019-03-19T17:12:42.001Z,40.88
2019-03-19T17:15:13.020Z,41.18
2019-03-19T17:17:41.496Z,40.97
2019-03-19T17:20:12.778Z,41.04
2019-03-19T17:22:41.251Z,41.46
2019-03-19T17:25:27.302Z,41.35
2019-03-19T17:27:55.938Z,41.71
2019-03-19T17:30:28.902Z,42.05
2019-03-19T17:32:57.289Z,41.93
2019-03-19T17:35:25.670Z,42.09
2019-03-19T17:37:54.170Z,42.54
2019-03-19T17:40:22.652Z,42.26
2019-03-19T17:42:51.030Z,42.42
2019-03-19T17:45:19.418Z,42.54
2019-03-19T17:47:47.974Z,42.56
2019-03-19T17:50:33.694Z,42.29
2019-03-19T17:53:02.091Z,42.63
2019-03-19T17:55:30.490Z,42.86
2019-03-19T17:57:58.871Z,42.29
2019-03-19T18:00:31.876Z,42.54
2019-03-19T18:03:00.271Z,42.58
2019-03-19T18:05:28.667Z,42.35
2019-03-19T18:07:57.293Z,42.39
2019-03-19T18:10:25.682Z,42.89
2019-03-19T18:12:54.081Z,42.55
2019-03-19T18:15:22.461Z,42.44
2019-03-19T18:17:50.882Z,42.49
2019-03-19T18:20:19.255Z,42.96
2019-03-19T18:22:47.630Z,42.91
2019-03-19T18:25:17.086Z,43.23
2019-03-19T18:27:45.453Z,43.46
2019-03-19T18:30:21.496Z,43.47
2019-03-19T18:32:49.893Z,43.86
2019-03-19T18:35:18.254Z,44.27
2019-03-19T18:37:46.655Z,44.29
2019-03-19T18:40:17.131Z,44.70
2019-03-19T18:42:45.661Z,44.90
2019-03-19T18:45:16.068Z,44.96
2019-03-19T18:47:44.466Z,45.41
2019-03-19T18:50:14.865Z,45.70
2019-03-19T18:52:43.324Z,45.84
2019-03-19T18:55:11.893Z,45.83
2019-03-19T18:57:41.544Z,46.02
2019-03-19T19:00:13.127Z,46.16
2019-03-19T19:02:49.645Z,46.51
2019-03-19T19:05:16.457Z,46.60
2019-03-19T19:07:44.828Z,46.50
2019-03-19T19:10:15.250Z,46.69
2019-03-19T19:12:43.677Z,46.53
2019-03-19T19:15:23.239Z,46.42
2019-03-19T19:17:51.615Z,46.34
2019-03-19T19:20:20.246Z,46.52
2019-03-19T19:22:48.641Z,46.46
2019-03-19T19:25:25.403Z,46.51
2019-03-19T19:27:53.788Z,46.17
2019-03-19T19:30:24.279Z,46.43
2019-03-19T19:33:00.934Z,46.72
2019-03-19T19:35:22.799Z,47.04
2019-03-19T19:37:51.191Z,47.14
2019-03-19T19:40:19.570Z,47.35
2019-03-19T19:42:48.964Z,47.39
2019-03-19T19:45:18.609Z,47.54
2019-03-19T19:47:46.987Z,47.77
2019-03-19T19:50:22.990Z,47.74
2019-03-19T19:52:51.467Z,47.52
2019-03-19T19:55:19.858Z,47.56
2019-03-19T19:57:48.266Z,47.38
2019-03-19T20:00:20.596Z,47.34
2019-03-19T20:02:49.272Z,47.74
2019-03-19T20:05:18.209Z,47.72
2019-03-19T20:07:46.670Z,47.85
2019-03-19T20:10:27.372Z,47.86
2019-03-19T20:12:55.755Z,48.17
2019-03-19T20:15:25.067Z,48.43
2019-03-19T20:17:53.454Z,48.55
2019-03-19T20:20:23.166Z,48.53
2019-03-19T20:22:51.568Z,48.69
2019-03-19T20:25:19.947Z,48.75
2019-03-19T20:27:48.336Z,48.86
2019-03-19T20:30:20.898Z,48.96
2019-03-19T20:32:49.293Z,49.15
2019-03-19T20:35:17.687Z,49.49
2019-03-19T20:37:46.063Z,49.68
2019-03-19T20:40:15.302Z,49.94
2019-03-19T20:42:44.616Z,50.20
2019-03-19T20:45:14.235Z,50.33
2019-03-19T20:47:42.624Z,50.11
2019-03-19T20:50:22.599Z,50.26
2019-03-19T20:52:50.993Z,50.43
2019-03-19T20:55:19.383Z,50.27
2019-03-19T20:57:47.765Z,50.50
2019-03-19T21:00:19.618Z,50.72
2019-03-19T21:02:48.004Z,50.61
2019-03-19T21:05:16.383Z,50.34
2019-03-19T21:07:44.780Z,50.39
2019-03-19T21:10:19.119Z,50.39
2019-03-19T21:12:47.651Z,50.51
2019-03-19T21:15:18.333Z,50.52
2019-03-19T21:17:47.654Z,50.58
2019-03-19T21:20:16.050Z,50.41
2019-03-19T21:22:45.264Z,50.45
2019-03-19T21:25:13.826Z,50.61
2019-03-19T21:27:42.279Z,50.94
2019-03-19T21:30:18.092Z,51.03
2019-03-19T21:32:46.623Z,51.36
2019-03-19T21:35:16.565Z,51.55
2019-03-19T21:37:44.941Z,51.99
2019-03-19T21:40:14.701Z,52.32
2019-03-19T21:42:43.074Z,52.65
2019-03-19T21:45:13.370Z,53.11
2019-03-19T21:47:41.747Z,53.27
2019-03-19T21:50:12.671Z,53.40
2019-03-19T21:52:41.057Z,53.58
2019-03-19T21:55:10.772Z,53.79
2019-03-19T21:57:39.175Z,53.76
2019-03-19T22:00:23.654Z,53.97
2019-03-19T22:02:52.038Z,54.10
2019-03-19T22:05:20.491Z,54.25
2019-03-19T22:07:48.871Z,54.29
2019-03-19T22:10:22.009Z,54.31
2019-03-19T22:12:50.389Z,54.23
2019-03-19T22:15:21.049Z,54.39
2019-03-19T22:17:49.426Z,54.39
2019-03-19T22:20:17.984Z,54.39
2019-03-19T22:22:46.363Z,54.57
2019-03-19T22:25:15.500Z,54.77
2019-03-19T22:27:44.008Z,55.08
2019-03-19T22:30:19.963Z,55.26
2019-03-19T22:32:48.343Z,55.56
2019-03-19T22:35:16.795Z,55.87
2019-03-19T22:37:45.255Z,55.91
2019-03-19T22:40:16.028Z,55.89
2019-03-19T22:42:44.546Z,56.16
2019-03-19T22:45:15.337Z,56.52
2019-03-19T22:47:43.701Z,56.59
2019-03-19T22:50:14.499Z,56.74
2019-03-19T22:52:42.941Z,56.95
2019-03-19T22:55:12.769Z,57.04
2019-03-19T22:57:41.150Z,56.94
2019-03-19T23:00:19.283Z,56.83
2019-03-19T23:02:47.714Z,56.95
2019-03-19T23:05:16.259Z,56.85
2019-03-19T23:07:44.641Z,56.71
2019-03-19T23:10:13.029Z,56.68
2019-03-19T23:12:41.654Z,56.50
2019-03-19T23:15:11.492Z,56.71
2019-03-19T23:17:40.106Z,56.52
2019-03-19T23:20:13.503Z,56.37
2019-03-19T23:22:42.022Z,56.61
2019-03-19T23:25:10.988Z,56.79
2019-03-19T23:27:39.388Z,57.14
2019-03-19T23:30:18.933Z,57.38
2019-03-19T23:32:47.380Z,57.65
2019-03-19T23:35:15.767Z,57.90
2019-03-19T23:37:44.149Z,57.97
2019-03-19T23:40:14.938Z,58.09
2019-03-19T23:42:43.339Z,58.44
2019-03-19T23:45:12.768Z,58.70
2019-03-19T23:47:41.292Z,59.00
2019-03-19T23:50:14.886Z,59.08
2019-03-19T23:52:43.345Z,59.18
2019-03-19T23:55:12.023Z,59.16
2019-03-19T23:57:40.414Z,59.23
